• Join FlightAware (Why Join?)
  • Login
  • US Flag 
02:50PM EDT


 

Airport Tracker/Info


-or-


 

Live Flight TrackerFlight Track Log ✈ ASQ6041 ✈ 15-Jul-2013 ✈ KDEN - KGUC

Flight Track Log - Related Links

Times and Time Zones

All times are in EDT time to prevent confusion due to time zone crossing. See the ASQ6041 flight status page for this flight to view local times or setup timezone preferences in your user account.

Time Position Orientation Groundspeed Altitude Reporting Facility
EDT Latitude Longitude Course Direction KTS MPH feet Rate Location/Type
01:45PM 39.9167 -104.7000 251° West 202 232 7,300  Level Denver TRACON
01:45PM 39.9667 -104.7333 333° Northwest 243 280 9,700 2,460 Climbing Denver TRACON
01:46PM 39.9667 -104.8167 270° West 261 300 12,000 2,100 Climbing Denver TRACON
01:47PM 39.7514 -104.9953 249° West  Level FlightAware Approximate
01:48PM 39.7157 -105.1032 247° West  Level FlightAware Approximate
01:48PM 39.9122 -104.9217 236° Southwest 291 335 14,500  Level Denver Center
01:49PM 39.6783 -105.2100 237° Southwest  Level FlightAware Approximate
01:49PM 39.8553 -105.0333 236° Southwest 348 400 15,500  Level Denver Center
01:50PM 39.6375 -105.3137 251° West  Level FlightAware Approximate
01:50PM 39.7958 -105.1489 236° Southwest 386 444 16,700  Level Denver Center
01:51PM 39.7303 -105.2756 236° Southwest 392 451 18,400 1,620 Climbing Denver Center
01:52PM 39.6714 -105.3919 237° Southwest 385 443 20,400 1,440 Climbing Denver Center
01:53PM 39.5944 -105.5378 236° Southwest 398 458 21,700 1,320 Climbing Denver Center
01:54PM 39.5350 -105.6753 241° Southwest 404 465 23,200 1,080 Climbing Denver Center
01:55PM 39.4972 -105.8144 251° West 408 470 24,000 360 Climbing Denver Center
01:56PM 39.4558 -105.9719 251° West 430 495 24,000  Level Denver Center
01:57PM 39.4114 -106.1244 249° West 451 519 24,000 -420 Level Denver Center
01:58PM 39.3297 -106.2431 228° Southwest 449 517 23,200 -1,200 Descending Denver Center
01:59PM 39.2350 -106.3319 216° Southwest 440 506 21,600 -2,040 Descending Denver Center
02:00PM 39.1442 -106.4156 216° Southwest 420 483 19,000 -2,280 Descending Denver Center
02:01PM 39.0519 -106.4886 212° Southwest 396 456 17,000 -1,020 Descending Denver Center
02:02PM 38.9550 -106.5556 208° Southwest 353 406 16,900 -60 Descending Denver Center
02:03PM 38.8908 -106.6422 226° Southwest 347 399 16,900 -480 Level Denver Center
02:04PM 38.8158 -106.7144 217° Southwest 338 389 16,000 -540 Descending Denver Center
02:06PM 38.7417 -106.7792 214° Southwest 329 379 15,900 -660 Descending Denver Center
02:07PM 38.6636 -106.8506 216° Southwest 317 365 14,700 -1,200 Descending Denver Center